Time;durP1;ratioP1;P1;durP2;ratioP2;P2;SDS_P1;SDS_P2;PMS_P1;PMS_P2;Temp;Humidity;BMP_temperature;BMP_pressure;BME280_temperature;BME280_humidity;BME280_pressure;Samples;Min_cycle;Max_cycle;Signal;HPM_P1;HPM_P2
2022/03/11 00:02:28;;;;;;;1.92;1.00;;;8.80;65.00;;;;;;20870696;28;20045;-75
2022/03/11 00:12:29;;;;;;;1.33;0.82;;;8.80;65.00;;;;;;20868570;28;20072;-76
2022/03/11 00:22:29;;;;;;;2.33;1.30;;;8.80;65.00;;;;;;20868805;28;20033;-75
2022/03/11 00:32:30;;;;;;;2.72;1.15;;;8.80;65.00;;;;;;20867544;28;20065;-75
2022/03/11 00:42:31;;;;;;;1.70;1.10;;;8.80;65.00;;;;;;20866867;28;20025;-75
2022/03/11 00:52:31;;;;;;;2.92;1.00;;;8.80;65.00;;;;;;20850559;28;20464;-75
2022/03/11 01:02:35;;;;;;;1.45;1.23;;;8.80;65.00;;;;;;20881476;28;20041;-75
2022/03/11 01:12:37;;;;;;;2.70;1.20;;;8.80;65.00;;;;;;20864442;28;20127;-75
2022/03/11 01:22:37;;;;;;;3.05;1.83;;;8.70;64.90;;;;;;20847038;28;20087;-76
2022/03/11 01:32:38;;;;;;;1.98;1.05;;;8.70;64.90;;;;;;20841254;28;20036;-75
2022/03/11 01:42:39;;;;;;;2.35;1.10;;;8.70;64.90;;;;;;20877832;28;20377;-75
2022/03/11 01:52:39;;;;;;;4.13;1.23;;;8.70;65.00;;;;;;20845791;28;20128;-75
2022/03/11 02:02:40;;;;;;;2.28;1.23;;;8.70;64.90;;;;;;21240209;22;20429;-77
2022/03/11 02:12:41;;;;;;;1.90;1.23;;;8.70;65.00;;;;;;20779085;28;20041;-74
2022/03/11 02:22:41;;;;;;;1.70;1.13;;;8.70;65.00;;;;;;20777748;28;20065;-74
2022/03/11 02:32:42;;;;;;;1.92;1.25;;;8.70;65.00;;;;;;20792181;28;20045;-75
2022/03/11 02:42:43;;;;;;;2.63;1.10;;;8.80;65.00;;;;;;20776470;28;20038;-75
2022/03/11 02:52:43;;;;;;;1.95;1.17;;;8.70;64.90;;;;;;20791925;28;20025;-75
2022/03/11 03:02:44;;;;;;;3.60;1.67;;;8.70;64.90;;;;;;20807661;28;20504;-74
2022/03/11 03:12:45;;;;;;;1.95;1.20;;;8.70;65.80;;;;;;20791175;28;20037;-74
2022/03/11 03:22:45;;;;;;;2.58;1.15;;;8.60;64.90;;;;;;20807370;28;20037;-75
2022/03/11 03:32:46;;;;;;;2.75;1.10;;;8.60;64.80;;;;;;20790504;28;20064;-75
2022/03/11 03:42:47;;;;;;;2.08;1.20;;;8.60;64.80;;;;;;20798043;28;20060;-76
2022/03/11 03:52:48;;;;;;;2.20;1.33;;;8.60;64.80;;;;;;20728363;28;20120;-75
2022/03/11 04:02:50;;;;;;;2.08;1.25;;;8.60;64.70;;;;;;20691214;28;20485;-75
2022/03/11 04:12:54;;;;;;;3.10;1.52;;;8.60;64.70;;;;;;20706446;28;20075;-74
2022/03/11 04:22:55;;;;;;;2.92;1.30;;;8.60;64.70;;;;;;20705617;28;20034;-74
2022/03/11 04:32:56;;;;;;;4.30;1.60;;;8.60;64.60;;;;;;20704744;28;20060;-76
2022/03/11 04:42:56;;;;;;;1.88;1.08;;;8.60;64.60;;;;;;20703781;28;20057;-75
2022/03/11 04:52:57;;;;;;;2.20;1.40;;;8.60;64.60;;;;;;20718722;28;20382;-75
2022/03/11 05:02:58;;;;;;;2.60;1.20;;;8.50;64.60;;;;;;20686133;28;20099;-75
2022/03/11 05:12:59;;;;;;;3.08;1.20;;;8.60;64.70;;;;;;20701369;28;20041;-73
2022/03/11 05:22:59;;;;;;;3.05;1.77;;;8.50;64.60;;;;;;20811022;28;20646;-74
2022/03/11 05:33:00;;;;;;;3.08;1.38;;;8.50;64.60;;;;;;20795421;28;20038;-74
2022/03/11 05:43:01;;;;;;;3.38;1.38;;;8.60;64.60;;;;;;20879866;28;20056;-73
2022/03/11 05:53:01;;;;;;;3.78;1.55;;;8.50;64.60;;;;;;20865950;28;20041;-76
2022/03/11 06:03:02;;;;;;;3.22;1.52;;;8.50;65.20;;;;;;20783595;28;20090;-75
2022/03/11 06:13:02;;;;;;;2.47;1.20;;;8.50;64.50;;;;;;20829363;28;20040;-76
2022/03/11 06:23:03;;;;;;;2.92;1.48;;;8.50;64.50;;;;;;20830717;28;20150;-75
2022/03/11 06:33:09;;;;;;;4.50;1.40;;;8.50;64.50;;;;;;20812052;28;20040;-77
2022/03/11 06:43:11;;;;;;;4.73;1.73;;;8.50;64.30;;;;;;20893498;28;20040;-77
2022/03/11 06:53:11;;;;;;;2.95;1.42;;;8.50;64.30;;;;;;20861223;28;20056;-75
2022/03/11 07:03:12;;;;;;;4.15;1.85;;;8.50;64.30;;;;;;20875545;28;20036;-78
2022/03/11 07:13:12;;;;;;;5.88;1.70;;;8.50;64.30;;;;;;20822882;28;20068;-77
2022/03/11 07:23:13;;;;;;;2.83;1.70;;;8.40;64.20;;;;;;20866760;28;20036;-75
2022/03/11 07:33:14;;;;;;;3.00;1.60;;;8.40;64.20;;;;;;20838503;28;20038;-75
2022/03/11 07:43:14;;;;;;;3.05;1.45;;;8.50;64.20;;;;;;20792497;28;20029;-74
2022/03/11 07:53:15;;;;;;;5.03;1.33;;;8.60;64.10;;;;;;20806371;28;20148;-76
2022/03/11 08:03:16;;;;;;;4.90;1.20;;;8.50;63.90;;;;;;20791325;28;20469;-75
2022/03/11 08:13:17;;;;;;;6.47;1.70;;;8.50;63.80;;;;;;20814535;28;20037;-76
2022/03/11 08:23:17;;;;;;;2.97;1.25;;;8.60;63.70;;;;;;20863764;28;20055;-75
2022/03/11 08:33:22;;;;;;;3.58;2.40;;;8.60;63.60;;;;;;20861572;28;20041;-77
2022/03/11 08:43:22;;;;;;;4.55;1.80;;;8.70;63.50;;;;;;20804195;28;20393;-78
2022/03/11 08:53:23;;;;;;;4.60;1.52;;;8.70;63.40;;;;;;20818957;28;20038;-79
2022/03/11 09:03:24;;;;;;;4.78;2.13;;;8.70;63.20;;;;;;20801037;28;20084;-78
2022/03/11 09:13:24;;;;;;;4.60;2.20;;;8.70;62.20;;;;;;20815078;28;20044;-78
2022/03/11 09:23:25;;;;;;;6.47;1.85;;;8.80;62.20;;;;;;20802606;28;20079;-79
2022/03/11 09:33:25;;;;;;;6.25;1.90;;;8.80;62.00;;;;;;20833493;28;20069;-79
2022/03/11 09:43:26;;;;;;;4.25;2.00;;;8.90;61.80;;;;;;20781635;28;20083;-79
2022/03/11 09:53:28;;;;;;;4.32;2.17;;;8.90;61.70;;;;;;20797824;28;20044;-79
2022/03/11 10:03:30;;;;;;;3.97;1.65;;;8.90;61.50;;;;;;20798151;28;20060;-78
2022/03/11 10:13:37;;;;;;;5.38;1.80;;;8.90;61.40;;;;;;20777832;28;20128;-78
2022/03/11 10:23:48;;;;;;;3.38;1.70;;;8.90;61.30;;;;;;20812109;28;20033;-81
2022/03/11 10:33:48;;;;;;;4.38;1.60;;;8.90;61.20;;;;;;20778291;28;20048;-79
2022/03/11 10:43:49;;;;;;;3.72;1.55;;;8.90;61.20;;;;;;20813214;28;20033;-80
2022/03/11 10:53:49;;;;;;;2.90;1.40;;;8.90;61.30;;;;;;20793664;28;20397;-79
2022/03/11 11:03:50;;;;;;;2.77;1.50;;;8.80;61.30;;;;;;20808320;28;20073;-79
2022/03/11 11:13:51;;;;;;;4.18;1.55;;;8.90;61.40;;;;;;20826417;28;20299;-80
2022/03/11 11:23:56;;;;;;;2.85;1.20;;;8.80;61.40;;;;;;20824851;28;20043;-78
2022/03/11 11:33:56;;;;;;;3.40;1.30;;;8.80;61.50;;;;;;20773267;28;20152;-75
2022/03/11 11:43:59;;;;;;;4.53;1.80;;;8.80;61.60;;;;;;20789601;28;20036;-81
2022/03/11 11:54:11;;;;;;;2.22;1.05;;;8.80;61.50;;;;;;20821079;28;20040;-76
2022/03/11 12:04:22;;;;;;;4.00;1.60;;;8.80;61.50;;;;;;20787615;28;20041;-78
2022/03/11 12:14:22;;;;;;;2.55;1.08;;;8.90;61.60;;;;;;20800551;28;20041;-80
2022/03/11 12:24:35;;;;;;;3.17;1.35;;;8.80;61.50;;;;;;20815423;28;20563;-78
2022/03/11 12:34:36;;;;;;;2.55;1.85;;;8.80;61.50;;;;;;20816118;28;20037;-80
2022/03/11 12:44:46;;;;;;;4.80;1.60;;;8.80;61.50;;;;;;20871855;28;20033;-79
2022/03/11 12:54:47;;;;;;;3.60;1.27;;;8.90;61.30;;;;;;20880791;28;20295;-79
2022/03/11 13:04:48;;;;;;;2.65;1.30;;;8.90;61.20;;;;;;20805662;28;20043;-79
2022/03/11 13:14:48;;;;;;;2.80;2.00;;;8.90;61.10;;;;;;20801136;28;20034;-76
2022/03/11 13:25:02;;;;;;;5.60;2.97;;;9.00;60.70;;;;;;20803186;28;20838;-75
2022/03/11 13:35:05;;;;;;;5.95;1.38;;;9.00;58.40;;;;;;20821000;28;20041;-78
2022/03/11 13:45:07;;;;;;;3.63;1.92;;;9.10;58.30;;;;;;20841269;28;20040;-75
2022/03/11 13:55:10;;;;;;;4.25;1.23;;;9.20;58.30;;;;;;20777279;28;20048;-76
2022/03/11 14:05:19;;;;;;;2.63;1.52;;;9.20;58.40;;;;;;20800916;28;20051;-75
2022/03/11 14:15:20;;;;;;;2.50;1.50;;;9.20;58.60;;;;;;20858565;28;20037;-76
2022/03/11 14:25:20;;;;;;;3.35;1.48;;;9.20;58.60;;;;;;20789455;28;20396;-76
2022/03/11 14:35:21;;;;;;;4.40;1.55;;;9.20;58.70;;;;;;20823408;28;20045;-79
2022/03/11 14:45:21;;;;;;;2.35;1.00;;;9.20;58.80;;;;;;20790590;28;20034;-80
2022/03/11 14:55:24;;;;;;;2.30;0.93;;;9.30;58.90;;;;;;20773025;28;20303;-80
2022/03/11 15:05:25;;;;;;;2.00;1.13;;;9.30;58.80;;;;;;20806606;28;20094;-79
2022/03/11 15:15:26;;;;;;;3.83;1.35;;;9.30;58.80;;;;;;20805463;28;20501;-77
2022/03/11 15:25:28;;;;;;;3.72;1.27;;;9.40;58.80;;;;;;20805611;28;20033;-79
2022/03/11 15:35:29;;;;;;;2.78;1.30;;;9.40;58.70;;;;;;20789763;28;20041;-79
2022/03/11 15:45:30;;;;;;;2.75;1.52;;;9.50;58.70;;;;;;20782095;28;20028;-74
2022/03/11 15:55:31;;;;;;;4.80;1.63;;;9.50;58.30;;;;;;20835549;28;20033;-76
2022/03/11 16:05:31;;;;;;;7.45;1.52;;;9.50;57.60;;;;;;20807508;28;20091;-78
2022/03/11 16:15:32;;;;;;;9.20;1.73;;;9.50;57.60;;;;;;20792160;28;20413;-80
2022/03/11 16:25:33;;;;;;;2.28;1.23;;;9.60;57.60;;;;;;20817665;28;20079;-81
2022/03/11 16:35:33;;;;;;;2.80;1.52;;;9.60;57.10;;;;;;20859228;28;20809;-78
2022/03/11 16:45:36;;;;;;;8.57;2.00;;;9.50;56.80;;;;;;20828935;28;20120;-79
2022/03/11 16:55:39;;;;;;;6.18;1.85;;;9.50;56.40;;;;;;20800438;28;20053;-70
2022/03/11 17:05:40;;;;;;;6.28;1.88;;;9.50;56.30;;;;;;20820549;28;20039;-75
2022/03/11 17:15:40;;;;;;;3.33;1.53;;;9.40;56.40;;;;;;20797149;28;20121;-73
2022/03/11 17:25:41;;;;;;;7.00;2.15;;;9.40;56.70;;;;;;20808697;28;20338;-74
2022/03/11 17:35:42;;;;;;;2.70;1.20;;;9.40;56.80;;;;;;20842843;28;20064;-75
2022/03/11 17:45:42;;;;;;;3.88;1.45;;;9.40;57.10;;;;;;20802976;28;20059;-76
2022/03/11 17:55:47;;;;;;;2.78;1.48;;;9.30;57.20;;;;;;20809918;28;20025;-78
2022/03/11 18:05:48;;;;;;;4.15;1.35;;;9.40;57.40;;;;;;20778844;28;20037;-75
2022/03/11 18:15:49;;;;;;;2.85;1.40;;;9.30;57.40;;;;;;20809678;28;20029;-81
2022/03/11 18:25:49;;;;;;;3.03;1.37;;;9.30;58.20;;;;;;20809855;28;20025;-77
2022/03/11 18:35:51;;;;;;;2.45;1.20;;;9.30;57.60;;;;;;20757550;28;20292;-77
2022/03/11 18:45:51;;;;;;;2.15;1.20;;;9.20;57.70;;;;;;20791763;28;20430;-78
2022/03/11 18:55:52;;;;;;;6.32;1.83;;;9.20;57.80;;;;;;20808896;28;20109;-78
2022/03/11 19:05:53;;;;;;;2.57;0.90;;;9.20;58.00;;;;;;20839892;28;20094;-77
2022/03/11 19:15:54;;;;;;;3.35;1.23;;;9.20;58.10;;;;;;20800822;28;20276;-78
2022/03/11 19:25:54;;;;;;;7.97;1.15;;;9.10;58.20;;;;;;20821349;28;20037;-77
2022/03/11 19:35:59;;;;;;;4.38;1.40;;;9.10;58.40;;;;;;20853977;28;20037;-78
2022/03/11 19:46:00;;;;;;;2.65;1.23;;;9.10;58.50;;;;;;20901504;28;20279;-77
2022/03/11 19:56:01;;;;;;;2.25;1.40;;;9.10;58.60;;;;;;20885482;28;20044;-77
2022/03/11 20:06:01;;;;;;;2.33;1.00;;;9.00;58.70;;;;;;20854283;28;20134;-77
2022/03/11 20:16:05;;;;;;;3.95;1.42;;;9.00;58.70;;;;;;20809584;28;20683;-78
2022/03/11 20:26:07;;;;;;;3.35;1.60;;;9.00;58.80;;;;;;20784021;28;20048;-78
2022/03/11 20:36:07;;;;;;;4.43;1.48;;;9.00;58.90;;;;;;20796060;28;20119;-78
2022/03/11 20:46:08;;;;;;;2.58;1.30;;;9.10;59.00;;;;;;20824712;28;20084;-77
2022/03/11 20:56:12;;;;;;;2.35;1.30;;;8.90;59.00;;;;;;20819485;28;20118;-78
2022/03/11 21:06:14;;;;;;;2.38;1.58;;;8.90;59.10;;;;;;20786089;28;20056;-79
2022/03/11 21:16:16;;;;;;;3.83;1.63;;;9.00;59.20;;;;;;20838427;28;20033;-79
2022/03/11 21:26:16;;;;;;;3.15;1.10;;;8.90;59.30;;;;;;20897725;28;20409;-79
2022/03/11 21:36:17;;;;;;;2.38;1.27;;;8.90;59.30;;;;;;20864945;28;20036;-79
2022/03/11 21:46:18;;;;;;;2.10;1.13;;;8.90;59.40;;;;;;20879549;28;20071;-79
2022/03/11 21:56:23;;;;;;;2.90;1.35;;;8.90;59.40;;;;;;20862808;28;20032;-79
2022/03/11 22:06:26;;;;;;;1.67;1.10;;;8.90;59.50;;;;;;20866060;28;20038;-81
2022/03/11 22:16:26;;;;;;;2.67;1.15;;;8.90;59.60;;;;;;20712949;28;20038;-79
2022/03/11 22:26:27;;;;;;;2.95;1.42;;;8.90;59.60;;;;;;20693953;28;20378;-80
2022/03/11 22:36:27;;;;;;;1.98;1.55;;;8.90;59.70;;;;;;20697383;28;20060;-79
2022/03/11 22:46:31;;;;;;;2.08;1.13;;;8.80;59.70;;;;;;20697121;28;20033;-80
2022/03/11 22:56:34;;;;;;;1.98;1.10;;;8.80;59.70;;;;;;20713804;28;20042;-79
2022/03/11 23:16:56;;;;;;;2.28;1.23;;;8.80;59.80;;;;;;20795873;28;20048;-79
2022/03/11 23:26:58;;;;;;;2.42;1.50;;;8.80;59.80;;;;;;20810138;28;20112;-79
2022/03/11 23:36:58;;;;;;;2.42;1.27;;;8.80;59.80;;;;;;20793009;28;20500;-79
2022/03/11 23:46:59;;;;;;;2.92;1.38;;;8.80;59.90;;;;;;20792173;28;20076;-79
2022/03/11 23:57:00;;;;;;;3.30;1.08;;;8.80;59.80;;;;;;20807745;28;20030;-81
